Time;durP1;ratioP1;P1;durP2;ratioP2;P2;SDS_P1;SDS_P2;PMS_P1;PMS_P2;Temp;Humidity;BMP_temperature;BMP_pressure;BME280_temperature;BME280_humidity;BME280_pressure;Samples;Min_cycle;Max_cycle;Signal;HPM_P1;HPM_P2
2024/03/26 00:02:10;;;;;;;0.80;0.80;;;1.50;99.90;;;;;;6248357;22;20191;-72
2024/03/26 00:04:36;;;;;;;0.80;0.80;;;1.50;99.90;;;;;;6275204;22;20247;-72
2024/03/26 00:07:02;;;;;;;0.80;0.80;;;1.50;99.90;;;;;;6275397;22;20196;-72
2024/03/26 00:09:27;;;;;;;0.80;0.80;;;1.50;99.90;;;;;;6275127;22;20226;-71
2024/03/26 00:11:53;;;;;;;0.70;0.70;;;1.50;99.90;;;;;;6275223;22;20188;-71
2024/03/26 00:14:25;;;;;;;0.65;0.65;;;1.50;99.90;;;;;;6274904;22;20165;-72
2024/03/26 00:16:50;;;;;;;0.60;0.60;;;1.50;99.90;;;;;;6274981;22;20172;-72
2024/03/26 00:19:16;;;;;;;0.68;0.68;;;1.50;99.90;;;;;;6276296;22;20168;-72
2024/03/26 00:21:44;;;;;;;0.75;0.75;;;1.50;99.90;;;;;;6249769;22;20514;-72
2024/03/26 00:24:10;;;;;;;0.70;0.70;;;1.50;99.90;;;;;;6250055;22;20176;-72
2024/03/26 00:26:39;;;;;;;0.70;0.70;;;1.40;99.90;;;;;;6276871;22;20179;-71
2024/03/26 00:29:07;;;;;;;0.70;0.70;;;1.40;99.90;;;;;;6277165;22;20168;-72
2024/03/26 00:31:38;;;;;;;0.70;0.70;;;1.40;99.90;;;;;;6276662;22;20262;-72
2024/03/26 00:34:16;;;;;;;0.98;0.98;;;1.40;99.90;;;;;;6249881;22;20180;-72
2024/03/26 00:36:45;;;;;;;0.60;0.60;;;1.40;99.90;;;;;;6276949;22;20597;-72
2024/03/26 00:39:10;;;;;;;0.60;0.60;;;1.40;99.90;;;;;;6277036;22;20168;-72
2024/03/26 00:41:36;;;;;;;0.80;0.80;;;1.50;99.90;;;;;;6276803;22;20196;-71
2024/03/26 00:44:02;;;;;;;0.75;0.75;;;1.40;99.90;;;;;;6276997;22;20168;-72
2024/03/26 00:46:27;;;;;;;1.55;1.45;;;1.50;99.90;;;;;;6276683;22;20183;-71
2024/03/26 00:48:53;;;;;;;0.77;0.77;;;1.40;99.90;;;;;;6276600;22;20226;-71
2024/03/26 00:51:19;;;;;;;0.68;0.68;;;1.40;99.90;;;;;;6249513;22;20304;-72
2024/03/26 00:53:44;;;;;;;0.80;0.80;;;1.40;99.90;;;;;;6276908;22;20537;-72
2024/03/26 00:56:10;;;;;;;0.60;0.60;;;1.40;99.90;;;;;;6276908;22;20632;-72
2024/03/26 00:58:36;;;;;;;0.70;0.70;;;1.40;99.90;;;;;;6276778;22;20735;-72
2024/03/26 01:01:11;;;;;;;0.80;0.80;;;1.40;99.90;;;;;;6276945;22;20176;-72
2024/03/26 01:03:37;;;;;;;0.70;0.70;;;1.40;99.90;;;;;;6276541;22;20183;-71
2024/03/26 01:06:03;;;;;;;0.80;0.80;;;1.40;99.90;;;;;;6276816;22;20169;-72
2024/03/26 01:08:29;;;;;;;0.60;0.60;;;1.40;99.90;;;;;;6248233;22;20186;-72
2024/03/26 01:10:55;;;;;;;0.80;0.80;;;1.50;99.90;;;;;;6275561;22;20164;-73
2024/03/26 01:13:21;;;;;;;0.60;0.60;;;1.40;99.90;;;;;;6275785;22;20218;-73
2024/03/26 01:15:47;;;;;;;0.60;0.60;;;1.50;99.90;;;;;;6275899;22;20231;-73
2024/03/26 01:18:13;;;;;;;0.70;0.70;;;1.40;99.90;;;;;;6248993;22;20172;-74
2024/03/26 01:20:41;;;;;;;0.70;0.70;;;1.50;99.90;;;;;;6276491;22;20172;-73
2024/03/26 01:23:07;;;;;;;0.70;0.70;;;1.50;99.90;;;;;;6276551;22;21018;-73
2024/03/26 01:25:32;;;;;;;0.70;0.70;;;1.50;99.90;;;;;;6276184;22;20167;-74
2024/03/26 01:27:58;;;;;;;0.50;0.50;;;1.50;99.90;;;;;;6276539;22;20165;-74
2024/03/26 01:30:24;;;;;;;0.90;0.90;;;1.50;99.90;;;;;;6276138;22;20241;-73
2024/03/26 01:32:50;;;;;;;1.42;1.27;;;1.50;99.90;;;;;;6276254;22;20637;-73
2024/03/26 01:35:16;;;;;;;0.75;0.75;;;1.50;99.90;;;;;;6276515;22;20540;-74
2024/03/26 01:37:42;;;;;;;0.73;0.73;;;1.50;99.90;;;;;;6249144;22;20179;-74
2024/03/26 01:40:10;;;;;;;0.70;0.70;;;1.50;99.90;;;;;;6276463;22;20274;-74
2024/03/26 01:42:36;;;;;;;0.70;0.70;;;1.50;99.90;;;;;;6276284;22;20481;-74
2024/03/26 01:45:03;;;;;;;0.73;0.73;;;1.50;99.90;;;;;;6275978;22;20175;-74
2024/03/26 01:47:33;;;;;;;0.80;0.80;;;1.50;99.90;;;;;;6276132;22;20267;-74
2024/03/26 01:50:03;;;;;;;0.70;0.70;;;1.50;99.90;;;;;;6276345;22;20164;-74
2024/03/26 01:52:30;;;;;;;0.75;0.75;;;1.50;99.90;;;;;;6275928;22;20554;-74
2024/03/26 01:54:57;;;;;;;0.70;0.70;;;1.50;99.90;;;;;;6276258;22;20597;-74
2024/03/26 01:57:23;;;;;;;0.73;0.73;;;1.50;99.90;;;;;;6249075;22;20487;-73
2024/03/26 01:59:51;;;;;;;0.88;0.88;;;1.50;99.90;;;;;;6249125;22;20172;-74
2024/03/26 02:02:17;;;;;;;0.70;0.70;;;1.50;99.90;;;;;;6276940;22;20180;-74
2024/03/26 02:04:45;;;;;;;0.73;0.73;;;1.50;99.90;;;;;;6247982;22;20180;-74
2024/03/26 02:07:11;;;;;;;0.75;0.75;;;1.40;99.90;;;;;;6248730;22;20509;-73
2024/03/26 02:09:37;;;;;;;0.70;0.70;;;1.40;99.90;;;;;;6275554;22;20578;-74
2024/03/26 02:12:02;;;;;;;0.85;0.85;;;1.40;99.90;;;;;;6275678;22;20195;-74
2024/03/26 02:14:28;;;;;;;0.60;0.60;;;1.40;99.90;;;;;;6275607;22;20168;-74
2024/03/26 02:16:54;;;;;;;0.80;0.80;;;1.40;99.90;;;;;;6275711;22;20175;-74
2024/03/26 02:19:24;;;;;;;0.52;0.52;;;1.40;99.90;;;;;;6248738;22;20262;-74
2024/03/26 02:21:50;;;;;;;0.77;0.77;;;1.40;99.90;;;;;;6276473;22;20179;-73
2024/03/26 02:24:16;;;;;;;0.77;0.77;;;1.40;99.90;;;;;;6275911;22;20613;-74
2024/03/26 02:26:42;;;;;;;0.77;0.77;;;1.40;99.90;;;;;;6275852;22;20168;-74
2024/03/26 02:29:07;;;;;;;0.70;0.70;;;1.40;99.90;;;;;;6275863;22;20180;-73
2024/03/26 02:31:33;;;;;;;0.70;0.70;;;1.40;99.90;;;;;;6275654;22;20187;-73
2024/03/26 02:33:58;;;;;;;0.70;0.70;;;1.40;99.90;;;;;;6275934;22;20168;-73
2024/03/26 02:36:24;;;;;;;0.68;0.68;;;1.40;99.90;;;;;;6275715;22;20168;-73
2024/03/26 02:38:50;;;;;;;0.68;0.68;;;1.40;99.90;;;;;;6248739;22;20620;-73
2024/03/26 02:41:15;;;;;;;0.77;0.77;;;1.40;99.90;;;;;;6275126;22;20172;-74
2024/03/26 02:43:42;;;;;;;0.77;0.77;;;1.40;99.90;;;;;;6248538;22;20490;-73
2024/03/26 02:46:07;;;;;;;0.70;0.70;;;1.40;99.90;;;;;;6275827;22;20555;-73
2024/03/26 02:48:33;;;;;;;0.60;0.60;;;1.30;99.90;;;;;;6248464;22;20176;-73
2024/03/26 02:50:58;;;;;;;0.85;0.85;;;1.30;99.90;;;;;;6275914;22;20198;-73
2024/03/26 02:53:24;;;;;;;0.60;0.60;;;1.30;99.90;;;;;;6248569;22;20225;-73
2024/03/26 02:55:50;;;;;;;3.47;2.42;;;1.30;99.90;;;;;;6275724;22;20239;-73
2024/03/26 02:58:16;;;;;;;0.73;0.73;;;1.30;99.90;;;;;;6248607;22;20176;-74
2024/03/26 03:00:42;;;;;;;0.70;0.70;;;1.30;99.90;;;;;;6248453;22;20540;-75
2024/03/26 03:03:07;;;;;;;1.05;0.98;;;1.30;99.90;;;;;;6248547;22;20180;-73
2024/03/26 03:05:33;;;;;;;0.70;0.70;;;1.30;99.90;;;;;;6275510;22;20195;-73
2024/03/26 03:07:59;;;;;;;0.70;0.70;;;1.20;99.90;;;;;;6275725;22;20235;-74
2024/03/26 03:10:25;;;;;;;1.00;0.93;;;1.30;99.90;;;;;;6248333;22;20173;-73
2024/03/26 03:12:50;;;;;;;0.70;0.70;;;1.20;99.90;;;;;;6248384;22;20271;-73
2024/03/26 03:15:16;;;;;;;0.70;0.70;;;1.20;99.90;;;;;;6275548;22;20168;-74
2024/03/26 03:17:42;;;;;;;0.65;0.65;;;1.20;99.90;;;;;;6275392;22;20164;-73
2024/03/26 03:20:11;;;;;;;0.70;0.70;;;1.20;99.90;;;;;;6275506;22;20173;-73
2024/03/26 03:22:38;;;;;;;0.60;0.60;;;1.20;99.90;;;;;;6248191;22;20186;-73
2024/03/26 03:25:04;;;;;;;0.70;0.70;;;1.20;99.90;;;;;;6275516;22;20652;-73
2024/03/26 03:27:30;;;;;;;0.60;0.60;;;1.10;99.90;;;;;;6275513;22;20492;-74
2024/03/26 03:29:55;;;;;;;0.80;0.80;;;1.10;99.90;;;;;;6248293;22;20215;-73
2024/03/26 03:32:21;;;;;;;0.70;0.70;;;1.10;99.90;;;;;;6275315;22;20186;-71
2024/03/26 03:34:47;;;;;;;0.70;0.70;;;1.10;99.90;;;;;;6248393;22;20311;-71
2024/03/26 03:37:12;;;;;;;0.73;0.73;;;1.10;99.90;;;;;;6275243;22;20168;-72
2024/03/26 03:39:38;;;;;;;0.55;0.55;;;1.10;99.90;;;;;;6275329;22;20176;-72
2024/03/26 03:42:04;;;;;;;0.70;0.70;;;1.10;99.90;;;;;;6275466;22;20476;-72
2024/03/26 03:44:35;;;;;;;0.60;0.60;;;1.10;99.90;;;;;;6275271;22;20200;-72
2024/03/26 03:47:01;;;;;;;0.60;0.60;;;1.10;99.90;;;;;;6248370;22;20227;-72
2024/03/26 03:49:27;;;;;;;0.80;0.80;;;1.10;99.90;;;;;;6275263;22;20207;-72
2024/03/26 03:51:53;;;;;;;0.80;0.80;;;1.10;99.90;;;;;;6275367;22;20180;-72
2024/03/26 03:54:18;;;;;;;0.80;0.80;;;1.10;99.90;;;;;;6276257;22;20168;-72
2024/03/26 03:56:44;;;;;;;0.63;0.63;;;1.10;99.90;;;;;;6277360;22;20173;-72
2024/03/26 03:59:10;;;;;;;0.70;0.70;;;1.20;99.90;;;;;;6277436;22;20164;-72
2024/03/26 04:01:35;;;;;;;0.80;0.80;;;1.10;99.90;;;;;;6249309;22;20191;-72
2024/03/26 04:04:04;;;;;;;0.60;0.60;;;1.20;99.90;;;;;;6277153;22;20172;-71
2024/03/26 04:06:29;;;;;;;0.73;0.73;;;1.10;99.90;;;;;;6277224;22;20503;-72
2024/03/26 04:08:55;;;;;;;0.68;0.68;;;1.10;99.90;;;;;;6250268;22;20176;-72
2024/03/26 04:11:21;;;;;;;0.60;0.60;;;1.10;99.90;;;;;;6276924;22;20176;-72
2024/03/26 04:13:49;;;;;;;0.80;0.80;;;1.10;99.90;;;;;;6277194;22;20164;-72
2024/03/26 04:16:14;;;;;;;0.70;0.70;;;1.10;99.90;;;;;;6249886;22;20168;-73
2024/03/26 04:18:40;;;;;;;0.77;0.77;;;1.10;99.90;;;;;;6277011;22;20183;-73
2024/03/26 04:21:05;;;;;;;0.68;0.68;;;1.10;99.90;;;;;;6277233;22;20168;-73
2024/03/26 04:23:31;;;;;;;0.90;0.90;;;1.10;99.90;;;;;;6249073;22;20271;-72
2024/03/26 04:25:58;;;;;;;0.60;0.60;;;1.10;99.90;;;;;;6277197;22;20175;-73
2024/03/26 04:28:28;;;;;;;0.80;0.80;;;1.00;99.90;;;;;;6276984;22;20653;-73
2024/03/26 04:30:54;;;;;;;0.63;0.63;;;1.10;99.90;;;;;;6276858;22;20192;-73
2024/03/26 04:33:20;;;;;;;0.70;0.70;;;1.10;99.90;;;;;;6276562;22;20172;-73
2024/03/26 04:35:47;;;;;;;0.70;0.70;;;1.10;99.90;;;;;;6277102;22;20594;-74
2024/03/26 04:38:13;;;;;;;0.70;0.70;;;1.10;99.90;;;;;;6249955;22;20514;-72
2024/03/26 04:40:40;;;;;;;0.80;0.80;;;1.10;99.90;;;;;;6276161;22;20179;-72
2024/03/26 04:43:06;;;;;;;0.60;0.60;;;1.00;99.90;;;;;;6249908;22;20279;-74
2024/03/26 04:45:33;;;;;;;0.70;0.70;;;1.00;99.90;;;;;;6276871;22;20217;-74
2024/03/26 04:47:59;;;;;;;1.73;1.63;;;1.00;99.90;;;;;;6249958;22;20169;-73
2024/03/26 04:50:25;;;;;;;0.80;0.80;;;1.10;99.90;;;;;;6276819;22;20172;-73
2024/03/26 04:52:51;;;;;;;0.73;0.73;;;1.10;99.90;;;;;;6276774;22;20206;-73
2024/03/26 04:55:17;;;;;;;0.70;0.70;;;1.10;99.90;;;;;;6276896;22;20597;-74
2024/03/26 04:57:42;;;;;;;0.60;0.60;;;1.00;99.90;;;;;;6276784;22;20248;-73
2024/03/26 05:00:12;;;;;;;1.15;1.05;;;1.10;99.90;;;;;;6249639;22;20172;-73
2024/03/26 05:02:41;;;;;;;0.68;0.68;;;1.00;99.90;;;;;;6276620;22;20688;-74
2024/03/26 05:05:08;;;;;;;0.63;0.63;;;1.10;99.90;;;;;;6276521;22;20176;-74
2024/03/26 05:07:34;;;;;;;0.70;0.70;;;1.10;99.90;;;;;;6276608;22;20513;-74
2024/03/26 05:10:00;;;;;;;0.68;0.68;;;1.10;99.90;;;;;;6249598;22;20172;-74
2024/03/26 05:12:27;;;;;;;0.80;0.80;;;1.10;99.90;;;;;;6276374;22;20206;-75
2024/03/26 05:14:53;;;;;;;0.70;0.70;;;1.10;99.90;;;;;;6276633;22;20169;-75
2024/03/26 05:17:18;;;;;;;0.70;0.70;;;1.10;99.90;;;;;;6276668;22;20237;-75
2024/03/26 05:19:44;;;;;;;0.70;0.70;;;1.10;99.90;;;;;;6276697;22;20168;-75
2024/03/26 05:22:10;;;;;;;0.60;0.60;;;1.10;99.90;;;;;;6276740;22;20196;-75
2024/03/26 05:24:38;;;;;;;0.70;0.70;;;1.10;99.90;;;;;;6276327;22;20168;-75
2024/03/26 05:27:04;;;;;;;0.75;0.75;;;1.10;99.90;;;;;;6249475;22;20257;-74
2024/03/26 05:29:29;;;;;;;0.60;0.60;;;1.10;99.90;;;;;;6275988;22;20192;-74
2024/03/26 05:31:55;;;;;;;0.60;0.60;;;1.10;99.90;;;;;;6249257;22;20534;-74
2024/03/26 05:34:21;;;;;;;0.70;0.70;;;1.10;99.90;;;;;;6249159;22;20199;-75
2024/03/26 05:36:46;;;;;;;0.60;0.60;;;1.10;99.90;;;;;;6276539;22;20217;-75
2024/03/26 05:39:12;;;;;;;0.70;0.70;;;1.10;99.90;;;;;;6276510;22;20169;-75
2024/03/26 05:41:38;;;;;;;0.73;0.73;;;1.10;99.90;;;;;;6249101;22;20263;-75
2024/03/26 05:44:04;;;;;;;0.90;0.90;;;1.10;99.90;;;;;;6276413;22;20202;-74
2024/03/26 05:46:33;;;;;;;0.73;0.73;;;1.10;99.90;;;;;;6248856;22;20176;-73
2024/03/26 05:49:00;;;;;;;0.65;0.65;;;1.20;99.90;;;;;;6276098;22;20222;-74
2024/03/26 05:51:26;;;;;;;0.70;0.70;;;1.10;99.90;;;;;;6276016;22;20181;-72
2024/03/26 05:53:51;;;;;;;1.08;1.05;;;1.10;99.90;;;;;;6249035;22;20241;-73
2024/03/26 05:56:17;;;;;;;0.70;0.70;;;1.10;99.90;;;;;;6248997;22;20203;-72
2024/03/26 05:58:43;;;;;;;0.80;0.80;;;1.10;99.90;;;;;;6248976;22;20172;-72
2024/03/26 06:01:08;;;;;;;0.70;0.70;;;1.10;99.90;;;;;;6276398;22;20187;-73
2024/03/26 06:03:36;;;;;;;0.70;0.70;;;1.10;99.90;;;;;;6248698;22;20233;-73
2024/03/26 06:06:02;;;;;;;0.50;0.50;;;1.10;99.90;;;;;;6276113;22;20239;-74
2024/03/26 06:08:27;;;;;;;0.80;0.80;;;1.10;99.90;;;;;;6276029;22;20249;-73
2024/03/26 06:10:53;;;;;;;0.70;0.70;;;1.10;99.90;;;;;;6275983;22;20168;-72
2024/03/26 06:13:19;;;;;;;0.70;0.70;;;1.10;99.90;;;;;;6275865;22;20168;-73
2024/03/26 06:15:44;;;;;;;0.80;0.80;;;1.10;99.90;;;;;;6275855;22;20235;-72
2024/03/26 06:18:10;;;;;;;0.65;0.65;;;1.20;99.90;;;;;;6275815;22;20171;-73
2024/03/26 06:20:36;;;;;;;0.70;0.70;;;1.20;99.90;;;;;;6275816;22;20168;-74
2024/03/26 06:23:01;;;;;;;0.70;0.70;;;1.20;99.90;;;;;;6276073;22;20302;-73
2024/03/26 06:25:27;;;;;;;0.60;0.60;;;1.20;99.90;;;;;;6275652;22;20171;-73
2024/03/26 06:27:53;;;;;;;0.60;0.60;;;1.30;99.90;;;;;;6275970;22;20172;-72
2024/03/26 06:30:19;;;;;;;0.80;0.80;;;1.20;99.90;;;;;;6275539;22;20249;-72
2024/03/26 06:32:45;;;;;;;0.70;0.70;;;1.20;99.90;;;;;;6275878;22;20640;-72
2024/03/26 06:35:11;;;;;;;2.17;1.40;;;1.20;99.90;;;;;;6275776;22;20230;-73
2024/03/26 06:37:37;;;;;;;0.60;0.60;;;1.30;99.90;;;;;;6275590;22;20172;-73
2024/03/26 06:40:03;;;;;;;0.70;0.70;;;1.30;99.90;;;;;;6275820;22;20172;-72
2024/03/26 06:42:29;;;;;;;0.63;0.63;;;1.30;99.90;;;;;;6275419;22;20290;-73
2024/03/26 06:44:55;;;;;;;0.80;0.80;;;1.30;99.90;;;;;;6275831;22;20566;-73
2024/03/26 06:47:21;;;;;;;0.80;0.80;;;1.30;99.90;;;;;;6275605;22;20178;-72
2024/03/26 06:49:47;;;;;;;0.80;0.80;;;1.30;99.90;;;;;;6275670;22;20243;-72
2024/03/26 06:52:13;;;;;;;0.68;0.68;;;1.30;99.90;;;;;;6275575;22;20648;-72
2024/03/26 06:54:39;;;;;;;0.65;0.65;;;1.30;99.90;;;;;;6275516;22;20251;-73
2024/03/26 06:57:05;;;;;;;0.60;0.60;;;1.30;99.90;;;;;;6275720;22;20243;-72
2024/03/26 06:59:32;;;;;;;0.60;0.60;;;1.40;99.90;;;;;;6275379;22;20195;-73
2024/03/26 07:02:02;;;;;;;0.70;0.70;;;1.30;99.90;;;;;;6276266;22;20617;-72
2024/03/26 07:04:29;;;;;;;0.75;0.75;;;1.30;99.90;;;;;;6230457;23;20184;-71
2024/03/26 07:06:54;;;;;;;0.70;0.70;;;1.30;99.90;;;;;;6243410;23;20183;-71
2024/03/26 07:09:20;;;;;;;0.90;0.90;;;1.40;99.90;;;;;;6273536;22;20693;-73
2024/03/26 07:11:45;;;;;;;0.70;0.70;;;1.40;99.90;;;;;;6275529;22;20183;-72
2024/03/26 07:14:12;;;;;;;0.70;0.70;;;1.40;99.90;;;;;;6275554;22;20172;-71
2024/03/26 07:16:38;;;;;;;0.50;0.50;;;1.40;99.90;;;;;;6275413;22;20179;-72
2024/03/26 07:19:04;;;;;;;0.80;0.80;;;1.40;99.90;;;;;;6275639;22;20618;-71
2024/03/26 07:21:29;;;;;;;0.70;0.70;;;1.50;99.90;;;;;;6274995;22;20182;-72
2024/03/26 07:23:55;;;;;;;0.65;0.65;;;1.50;99.90;;;;;;6275613;22;20246;-72
2024/03/26 07:26:22;;;;;;;0.70;0.70;;;1.50;99.90;;;;;;6275385;22;20164;-71
2024/03/26 07:28:48;;;;;;;0.85;0.85;;;1.60;99.90;;;;;;6277099;22;20176;-72
2024/03/26 07:31:13;;;;;;;0.60;0.60;;;1.50;99.90;;;;;;6250241;22;20222;-72
2024/03/26 07:33:39;;;;;;;0.60;0.60;;;1.50;99.90;;;;;;6277481;22;20187;-72
2024/03/26 07:36:05;;;;;;;0.70;0.70;;;1.60;99.90;;;;;;6277676;22;20190;-72
2024/03/26 07:38:31;;;;;;;1.00;1.00;;;1.60;99.90;;;;;;6275712;22;20172;-72
2024/03/26 07:40:57;;;;;;;0.60;0.60;;;1.60;99.90;;;;;;6277561;22;20649;-73
2024/03/26 07:43:23;;;;;;;0.80;0.80;;;1.70;99.90;;;;;;6277313;22;20192;-72
2024/03/26 07:45:48;;;;;;;1.15;1.13;;;1.70;99.90;;;;;;6277411;22;20213;-72
2024/03/26 07:48:14;;;;;;;0.60;0.60;;;1.70;99.90;;;;;;6277357;22;20175;-73
2024/03/26 07:50:40;;;;;;;0.80;0.80;;;1.60;99.90;;;;;;6277262;22;20239;-72
2024/03/26 07:53:06;;;;;;;0.70;0.70;;;1.60;99.90;;;;;;6275717;22;20635;-71
2024/03/26 07:55:31;;;;;;;0.80;0.80;;;1.50;99.90;;;;;;6277176;22;20501;-72
2024/03/26 07:57:57;;;;;;;0.77;0.77;;;1.60;99.90;;;;;;6277434;22;20531;-72
2024/03/26 08:00:22;;;;;;;0.80;0.80;;;1.50;99.90;;;;;;6276833;22;20164;-72
2024/03/26 08:02:48;;;;;;;0.73;0.73;;;1.50;99.90;;;;;;6277276;22;20178;-72
2024/03/26 08:05:14;;;;;;;0.70;0.70;;;1.50;99.90;;;;;;6277223;22;20168;-72
2024/03/26 08:07:40;;;;;;;0.73;0.73;;;1.60;99.90;;;;;;6275445;22;20234;-72
2024/03/26 08:10:06;;;;;;;0.80;0.80;;;1.70;99.90;;;;;;6277259;22;20172;-72
2024/03/26 08:12:31;;;;;;;0.65;0.65;;;1.70;99.90;;;;;;6277068;22;20683;-73
2024/03/26 08:14:57;;;;;;;0.60;0.60;;;1.80;99.90;;;;;;6277249;22;20165;-73
2024/03/26 08:17:26;;;;;;;0.68;0.68;;;1.90;99.90;;;;;;6275102;22;20176;-73
2024/03/26 08:19:51;;;;;;;0.65;0.65;;;1.90;99.90;;;;;;6277233;22;20191;-73
2024/03/26 08:22:17;;;;;;;0.60;0.60;;;1.90;99.90;;;;;;6276990;22;20164;-73
2024/03/26 08:24:43;;;;;;;0.60;0.60;;;2.00;99.90;;;;;;6277015;22;20183;-73
2024/03/26 08:27:09;;;;;;;0.60;0.60;;;2.00;99.90;;;;;;6276174;22;20172;-73
2024/03/26 08:29:34;;;;;;;0.70;0.70;;;2.10;99.90;;;;;;6275187;22;20199;-73
2024/03/26 08:32:00;;;;;;;0.70;0.70;;;2.20;99.90;;;;;;6275326;22;20573;-73
2024/03/26 08:34:26;;;;;;;0.50;0.50;;;2.20;99.90;;;;;;6273628;22;20176;-72
2024/03/26 08:36:51;;;;;;;0.93;0.93;;;2.20;99.90;;;;;;6275256;22;20176;-72
2024/03/26 08:39:17;;;;;;;0.90;0.88;;;2.30;99.90;;;;;;6274872;22;20164;-73
2024/03/26 08:41:43;;;;;;;0.60;0.60;;;2.40;99.90;;;;;;6275643;22;20183;-73
2024/03/26 08:44:08;;;;;;;0.70;0.70;;;2.40;99.90;;;;;;6275313;22;20250;-72
2024/03/26 08:46:34;;;;;;;0.63;0.63;;;2.40;99.90;;;;;;6275150;22;20218;-73
2024/03/26 08:49:00;;;;;;;0.60;0.60;;;2.30;99.90;;;;;;6275286;22;20555;-72
2024/03/26 08:51:29;;;;;;;0.70;0.70;;;2.30;99.90;;;;;;6273303;22;20184;-72
2024/03/26 08:53:55;;;;;;;0.57;0.57;;;2.40;99.90;;;;;;6275249;22;20195;-72
2024/03/26 08:56:21;;;;;;;0.60;0.60;;;2.30;99.90;;;;;;6274891;22;20233;-73
2024/03/26 08:58:51;;;;;;;0.65;0.65;;;2.20;99.90;;;;;;6275033;22;20168;-72
2024/03/26 09:01:16;;;;;;;0.60;0.60;;;2.30;99.90;;;;;;6275241;22;20475;-73
2024/03/26 09:03:42;;;;;;;0.68;0.68;;;2.30;99.90;;;;;;6273296;22;20176;-73
2024/03/26 09:06:08;;;;;;;0.70;0.70;;;2.40;99.90;;;;;;6275026;22;20565;-73
2024/03/26 09:08:34;;;;;;;0.60;0.60;;;2.50;99.90;;;;;;6274941;22;20205;-72
2024/03/26 09:11:00;;;;;;;0.70;0.70;;;2.40;99.90;;;;;;6274791;22;20195;-72
2024/03/26 09:13:25;;;;;;;0.77;0.77;;;2.50;99.90;;;;;;6274318;22;20172;-73
2024/03/26 09:15:52;;;;;;;0.80;0.80;;;2.50;99.90;;;;;;6273442;22;20610;-73
2024/03/26 09:18:17;;;;;;;0.70;0.70;;;2.60;99.90;;;;;;6274856;22;20218;-72
2024/03/26 09:20:43;;;;;;;0.95;0.95;;;2.60;99.90;;;;;;6274884;22;20552;-73
2024/03/26 09:23:09;;;;;;;0.70;0.70;;;2.60;99.90;;;;;;6275009;22;20172;-73
2024/03/26 09:25:34;;;;;;;0.70;0.70;;;2.60;99.90;;;;;;6273141;22;20233;-73
2024/03/26 09:28:00;;;;;;;0.65;0.65;;;2.80;99.90;;;;;;6273359;22;20183;-73
2024/03/26 09:30:27;;;;;;;0.63;0.63;;;2.80;99.90;;;;;;6274419;22;20191;-73
2024/03/26 09:32:55;;;;;;;0.70;0.70;;;2.70;99.90;;;;;;6274567;22;20196;-73
2024/03/26 09:35:21;;;;;;;0.60;0.60;;;2.70;99.90;;;;;;6274441;22;20176;-73
2024/03/26 09:37:47;;;;;;;0.70;0.70;;;2.80;99.90;;;;;;6274754;22;20168;-73
2024/03/26 09:40:13;;;;;;;0.70;0.70;;;2.80;99.90;;;;;;6274745;22;20172;-73
2024/03/26 09:42:42;;;;;;;0.70;0.70;;;2.80;99.90;;;;;;6274590;22;20184;-73
2024/03/26 09:45:13;;;;;;;0.68;0.68;;;2.80;99.90;;;;;;6247513;22;20551;-73
2024/03/26 09:47:40;;;;;;;0.70;0.70;;;2.80;99.90;;;;;;6274488;22;20175;-72
2024/03/26 09:50:07;;;;;;;0.63;0.63;;;2.90;99.90;;;;;;6274576;22;20176;-72
2024/03/26 09:52:34;;;;;;;0.80;0.80;;;2.90;99.90;;;;;;6246584;22;20184;-73
2024/03/26 09:55:06;;;;;;;0.77;0.77;;;3.00;99.90;;;;;;6247411;22;20172;-72
2024/03/26 09:57:32;;;;;;;0.70;0.70;;;3.00;99.90;;;;;;6247043;22;20258;-73
2024/03/26 09:59:57;;;;;;;0.63;0.63;;;3.10;99.90;;;;;;6275011;22;20164;-73
2024/03/26 10:02:23;;;;;;;0.60;0.60;;;3.00;99.90;;;;;;6274824;22;20179;-73
2024/03/26 10:04:49;;;;;;;0.57;0.57;;;2.90;99.90;;;;;;6247223;22;20179;-73
2024/03/26 10:07:15;;;;;;;0.70;0.70;;;2.90;99.90;;;;;;6274550;22;20243;-73
2024/03/26 10:09:40;;;;;;;0.70;0.70;;;3.00;99.90;;;;;;6246827;22;20176;-73
2024/03/26 10:12:10;;;;;;;0.70;0.70;;;3.00;99.90;;;;;;6247266;22;20195;-73
2024/03/26 10:14:37;;;;;;;0.75;0.75;;;3.00;99.90;;;;;;6274077;22;20168;-72
2024/03/26 10:17:02;;;;;;;0.65;0.65;;;2.80;99.90;;;;;;6274372;22;20555;-73
2024/03/26 10:19:28;;;;;;;0.63;0.63;;;3.00;99.90;;;;;;6247096;22;20176;-73
2024/03/26 10:21:54;;;;;;;2.05;1.88;;;3.10;99.90;;;;;;6247229;22;20168;-73
2024/03/26 10:24:20;;;;;;;0.70;0.70;;;3.20;99.90;;;;;;6246919;22;20232;-73
2024/03/26 10:26:48;;;;;;;0.60;0.60;;;3.10;99.90;;;;;;6274738;22;20168;-73
2024/03/26 10:29:14;;;;;;;0.68;0.68;;;3.20;99.90;;;;;;6274133;22;20221;-73
2024/03/26 10:31:44;;;;;;;0.60;0.60;;;3.40;99.90;;;;;;6273932;22;20195;-74
2024/03/26 10:34:10;;;;;;;1.00;1.00;;;3.50;99.90;;;;;;6274262;22;20375;-72
2024/03/26 10:36:37;;;;;;;1.42;1.33;;;3.60;99.90;;;;;;6274030;22;20164;-73
2024/03/26 10:39:04;;;;;;;0.60;0.60;;;3.80;99.90;;;;;;6274127;22;20522;-73
2024/03/26 10:41:34;;;;;;;0.60;0.60;;;4.00;99.90;;;;;;6246715;22;20264;-73
2024/03/26 10:44:00;;;;;;;0.70;0.70;;;3.90;99.90;;;;;;6274139;22;20169;-74
2024/03/26 10:46:29;;;;;;;0.75;0.75;;;4.00;99.90;;;;;;6273874;22;20178;-73
2024/03/26 10:48:57;;;;;;;0.73;0.73;;;4.00;99.90;;;;;;6274423;22;20208;-74
2024/03/26 10:51:50;;;;;;;2.05;1.25;;;4.10;99.90;;;;;;6274138;22;20641;-73
2024/03/26 10:54:18;;;;;;;0.60;0.60;;;4.00;99.90;;;;;;6275610;22;20640;-74
2024/03/26 10:56:47;;;;;;;0.80;0.80;;;3.90;99.90;;;;;;6273865;22;20176;-73
2024/03/26 10:59:13;;;;;;;0.70;0.70;;;3.90;99.90;;;;;;6246755;22;20506;-73
2024/03/26 11:01:40;;;;;;;0.50;0.50;;;3.90;99.90;;;;;;6246618;22;20207;-74
2024/03/26 11:04:05;;;;;;;0.55;0.55;;;3.70;99.90;;;;;;6273807;22;20250;-73
2024/03/26 11:06:32;;;;;;;0.63;0.63;;;3.70;99.90;;;;;;6273528;22;20172;-73
2024/03/26 11:09:02;;;;;;;1.02;1.02;;;3.60;99.90;;;;;;6273898;22;20597;-73
2024/03/26 11:11:35;;;;;;;0.70;0.70;;;3.40;99.90;;;;;;6273790;22;20641;-73
2024/03/26 11:14:03;;;;;;;0.68;0.68;;;3.40;99.90;;;;;;6246696;22;20195;-73
2024/03/26 11:16:38;;;;;;;0.68;0.68;;;3.50;99.90;;;;;;6273718;22;20171;-73
2024/03/26 11:19:16;;;;;;;0.80;0.80;;;3.50;99.90;;;;;;6246968;22;20629;-72
2024/03/26 11:21:42;;;;;;;1.77;0.93;;;3.60;99.90;;;;;;6273660;22;20172;-73
2024/03/26 11:24:21;;;;;;;0.57;0.57;;;3.60;99.90;;;;;;6273700;22;20569;-72
2024/03/26 11:26:47;;;;;;;0.50;0.50;;;3.50;99.90;;;;;;6274065;22;20250;-73
2024/03/26 11:29:14;;;;;;;0.60;0.60;;;3.30;99.90;;;;;;6273717;22;20172;-72
2024/03/26 11:31:44;;;;;;;0.65;0.65;;;3.30;99.90;;;;;;6273450;22;20279;-72
2024/03/26 11:34:13;;;;;;;0.65;0.65;;;3.30;99.90;;;;;;6273934;22;20183;-72
2024/03/26 11:36:40;;;;;;;0.70;0.70;;;3.30;99.90;;;;;;6273799;22;20172;-72
2024/03/26 11:39:07;;;;;;;0.70;0.70;;;3.30;99.90;;;;;;6274149;22;20633;-72
2024/03/26 11:41:33;;;;;;;0.70;0.70;;;3.30;99.90;;;;;;6273698;22;20192;-72
2024/03/26 11:44:00;;;;;;;0.60;0.60;;;3.40;99.90;;;;;;6274443;22;20180;-71
2024/03/26 11:46:26;;;;;;;0.70;0.70;;;3.50;99.90;;;;;;6273563;22;20624;-71
2024/03/26 11:49:03;;;;;;;0.60;0.60;;;3.60;99.90;;;;;;6273966;22;20242;-71
2024/03/26 11:51:29;;;;;;;0.70;0.70;;;3.50;99.90;;;;;;6246122;22;20198;-71
2024/03/26 11:53:55;;;;;;;0.60;0.60;;;3.60;99.90;;;;;;6273793;22;20169;-71
2024/03/26 11:56:21;;;;;;;0.75;0.75;;;3.70;99.90;;;;;;6246329;22;20586;-71
2024/03/26 11:58:50;;;;;;;0.63;0.63;;;3.60;99.90;;;;;;6273640;22;20203;-71
2024/03/26 12:01:20;;;;;;;0.70;0.70;;;3.60;99.90;;;;;;6273606;22;20176;-72
2024/03/26 12:04:03;;;;;;;0.70;0.70;;;3.40;99.90;;;;;;6273227;22;20255;-71
2024/03/26 12:06:32;;;;;;;0.70;0.70;;;3.50;99.90;;;;;;6246508;22;20248;-71
2024/03/26 12:08:59;;;;;;;0.75;0.75;;;3.40;99.90;;;;;;6273858;22;20164;-72
2024/03/26 12:11:28;;;;;;;0.80;0.80;;;3.50;99.90;;;;;;6246576;22;20192;-72
2024/03/26 12:13:53;;;;;;;0.77;0.77;;;3.60;99.90;;;;;;6273792;22;20168;-72
2024/03/26 12:16:20;;;;;;;0.80;0.80;;;3.50;99.90;;;;;;6248244;22;20168;-73
2024/03/26 12:18:46;;;;;;;0.80;0.80;;;3.50;99.90;;;;;;6275751;22;20192;-72
2024/03/26 12:21:11;;;;;;;0.77;0.77;;;3.40;99.90;;;;;;6275521;22;20172;-71
2024/03/26 12:23:37;;;;;;;0.70;0.70;;;3.50;99.90;;;;;;6275449;22;20169;-71
2024/03/26 12:26:03;;;;;;;0.70;0.70;;;3.50;99.90;;;;;;6275653;22;20194;-71
2024/03/26 12:28:29;;;;;;;0.73;0.73;;;3.60;99.90;;;;;;6275292;22;20171;-72
2024/03/26 12:30:55;;;;;;;0.70;0.70;;;3.80;99.90;;;;;;6248090;22;20206;-71
2024/03/26 12:33:21;;;;;;;0.50;0.50;;;3.90;99.90;;;;;;6275059;22;20279;-72
2024/03/26 12:35:47;;;;;;;0.73;0.73;;;4.00;99.90;;;;;;6248281;22;20200;-72
2024/03/26 12:38:13;;;;;;;0.80;0.80;;;4.20;99.90;;;;;;6275416;22;20263;-72
2024/03/26 12:40:38;;;;;;;0.80;0.80;;;4.20;99.90;;;;;;6275265;22;20235;-72
2024/03/26 12:43:04;;;;;;;0.70;0.70;;;4.30;99.90;;;;;;6248196;22;20176;-72
2024/03/26 12:45:30;;;;;;;0.55;0.55;;;4.30;99.90;;;;;;6247876;22;20251;-73
2024/03/26 12:47:55;;;;;;;0.70;0.70;;;4.20;99.90;;;;;;6275403;22;20168;-72
2024/03/26 12:50:21;;;;;;;0.60;0.60;;;4.10;99.90;;;;;;6247790;22;20176;-72
2024/03/26 12:52:46;;;;;;;0.60;0.60;;;4.00;99.90;;;;;;6275159;22;20184;-72
2024/03/26 12:55:12;;;;;;;0.60;0.60;;;4.00;99.90;;;;;;6247990;22;20180;-72